Terminal Aerodrome Forecast
Issued by NWS

Home | Current Version | Previous Version | Graphics & Text | Print | Product List | Glossary Off
Versions: 1 2 3 4 5 6 7 8 9 10 11 12 13 14 15 16 17 18 19 20 21 22 23 24 25 26 27 28 29 30 31 32 33 34 35 36

000
FTUS43 KDDC 240317 AAA
TAFGCK
TAF AMD
KGCK 240317Z 2403/2424 34018G28KT 3SM -SN FEW015 OVC030
     FM240400 34018G28KT P6SM OVC025
     FM240500 33017G24KT P6SM FEW040
     FM241200 32014KT P6SM SKC=

USA.gov is the U.S. government's official web portal to all federal, state and local government web resources and services.